createdAt,value
2018-10-07T00:00:48.736Z,92.30
2018-10-07T00:03:18.714Z,92.10
2018-10-07T00:05:49.287Z,92.10
2018-10-07T00:08:19.212Z,92.20
2018-10-07T00:10:49.501Z,92.20
2018-10-07T00:13:19.444Z,92.20
2018-10-07T00:15:49.809Z,92.20
2018-10-07T00:18:19.662Z,92.30
2018-10-07T00:20:49.987Z,92.50
2018-10-07T00:23:19.745Z,92.60
2018-10-07T00:25:50.159Z,92.60
2018-10-07T00:28:20.021Z,92.70
2018-10-07T00:30:50.437Z,92.80
2018-10-07T00:33:20.600Z,92.80
2018-10-07T00:35:50.798Z,92.90
2018-10-07T00:38:20.506Z,93.00
2018-10-07T00:40:51.214Z,93.20
2018-10-07T00:43:21.228Z,93.20
2018-10-07T00:45:51.888Z,93.20
2018-10-07T00:48:21.760Z,93.30
2018-10-07T00:50:51.689Z,93.20
2018-10-07T00:53:21.644Z,93.50
2018-10-07T00:55:52.007Z,93.40
2018-10-07T00:58:21.931Z,93.50
2018-10-07T01:00:52.685Z,93.60
2018-10-07T01:03:22.618Z,93.90
2018-10-07T01:05:52.981Z,93.60
2018-10-07T01:08:22.764Z,93.70
2018-10-07T01:10:53.142Z,93.80
2018-10-07T01:13:23.015Z,93.90
2018-10-07T01:15:52.942Z,94.00
2018-10-07T01:18:22.851Z,93.90
2018-10-07T01:20:52.790Z,93.80
2018-10-07T01:23:22.643Z,94.20
2018-10-07T01:25:52.443Z,93.80
2018-10-07T01:28:22.358Z,93.80
2018-10-07T01:30:52.091Z,93.80
2018-10-07T01:33:21.943Z,93.90
2018-10-07T01:35:51.840Z,93.90
2018-10-07T01:38:21.742Z,93.90
2018-10-07T01:40:51.675Z,93.90
2018-10-07T01:43:21.617Z,93.90
2018-10-07T01:45:51.527Z,93.90
2018-10-07T01:48:21.544Z,93.90
2018-10-07T01:50:51.439Z,93.90
2018-10-07T01:53:21.361Z,93.80
2018-10-07T01:55:51.249Z,93.90
2018-10-07T01:58:21.200Z,93.70
2018-10-07T02:00:51.377Z,93.80
2018-10-07T02:03:21.355Z,93.80
2018-10-07T02:05:51.357Z,93.80
2018-10-07T02:08:21.380Z,93.90
2018-10-07T02:10:51.285Z,93.80
2018-10-07T02:13:21.277Z,93.90
2018-10-07T02:15:51.238Z,93.90
2018-10-07T02:18:21.173Z,93.90
2018-10-07T02:20:51.017Z,94.00
2018-10-07T02:23:20.736Z,93.90
2018-10-07T02:25:50.648Z,94.00
2018-10-07T02:28:20.549Z,94.00
2018-10-07T02:30:50.385Z,93.60
2018-10-07T02:33:20.993Z,94.00
2018-10-07T02:35:50.918Z,94.10
2018-10-07T02:38:21.368Z,94.30
2018-10-07T02:40:51.233Z,94.30
2018-10-07T02:43:21.504Z,94.50
2018-10-07T02:45:51.363Z,94.70
2018-10-07T02:48:21.752Z,94.80
2018-10-07T02:50:51.758Z,94.90
2018-10-07T02:53:21.860Z,95.00
2018-10-07T02:55:51.845Z,95.10
2018-10-07T02:58:22.485Z,95.00
2018-10-07T03:00:52.425Z,95.10
2018-10-07T03:03:22.491Z,95.20
2018-10-07T03:05:52.213Z,95.50
2018-10-07T03:08:22.655Z,95.70
2018-10-07T03:10:52.592Z,95.90
2018-10-07T03:13:22.977Z,96.10
2018-10-07T03:15:53.410Z,96.10
2018-10-07T03:18:23.577Z,96.20
2018-10-07T03:20:53.468Z,96.40
2018-10-07T03:23:23.460Z,96.40
2018-10-07T03:25:53.333Z,96.60
2018-10-07T03:28:23.659Z,96.70
2018-10-07T03:30:53.457Z,96.80
2018-10-07T03:33:24.274Z,96.80
2018-10-07T03:35:54.294Z,96.90
2018-10-07T03:38:24.973Z,97.00
2018-10-07T03:40:55.011Z,97.00
2018-10-07T03:43:24.906Z,97.00
2018-10-07T03:45:54.675Z,97.00
2018-10-07T03:48:25.056Z,97.00
2018-10-07T03:50:54.797Z,97.10
2018-10-07T03:53:25.081Z,97.30
2018-10-07T03:55:55.020Z,97.70
2018-10-07T03:58:25.152Z,97.50
2018-10-07T08:33:47.640Z,97.50
2018-10-07T08:36:17.535Z,97.20
2018-10-07T08:38:47.517Z,97.50
2018-10-07T08:41:17.512Z,97.70
2018-10-07T08:43:47.582Z,97.90
2018-10-07T08:46:17.585Z,97.90
2018-10-07T08:48:47.376Z,98.00
2018-10-07T08:51:17.248Z,98.10
2018-10-07T08:53:46.944Z,98.00
2018-10-07T08:56:16.878Z,98.10
2018-10-07T18:52:41.329Z,98.50
2018-10-07T20:29:57.476Z,95.70
2018-10-07T20:52:21.878Z,99.80
2018-10-07T20:59:50.177Z,99.80
2018-10-07T21:02:19.826Z,99.90
2018-10-07T21:04:49.558Z,99.90
2018-10-07T21:07:19.336Z,99.90
2018-10-07T21:09:50.132Z,99.90
2018-10-07T21:12:19.862Z,99.90
2018-10-07T21:14:49.690Z,99.90
2018-10-07T21:17:19.385Z,99.90
2018-10-07T21:19:49.146Z,99.90
2018-10-07T21:22:18.902Z,99.90
2018-10-07T21:24:48.573Z,99.90
